createdAt,value
2022-08-30T00:01:46.438Z,99245.22
2022-08-30T00:04:32.639Z,99235.06
2022-08-30T00:07:19.046Z,99232.50
2022-08-30T00:10:06.186Z,99241.13
2022-08-30T00:12:52.480Z,99255.88
2022-08-30T00:15:42.437Z,99244.88
2022-08-30T00:18:29.367Z,99244.22
2022-08-30T00:21:16.075Z,99240.81
2022-08-30T00:24:03.167Z,99228.91
2022-08-30T00:26:49.585Z,99238.41
2022-08-30T00:29:35.991Z,99225.56
2022-08-30T00:32:22.842Z,99230.84
2022-08-30T00:35:12.932Z,99247.31
2022-08-30T00:37:59.584Z,99237.88
2022-08-30T00:40:46.504Z,99256.09
2022-08-30T00:43:37.122Z,99270.75
2022-08-30T00:46:23.452Z,99248.50
2022-08-30T00:49:12.900Z,99217.53
2022-08-30T00:52:02.098Z,99250.28
2022-08-30T00:54:50.762Z,99242.56
2022-08-30T00:57:37.208Z,99238.25
2022-08-30T01:00:24.251Z,99277.13
2022-08-30T01:03:10.628Z,99275.41
2022-08-30T01:05:58.798Z,99253.06
2022-08-30T01:08:46.678Z,99242.72
2022-08-30T01:11:35.410Z,99228.09
2022-08-30T01:14:25.827Z,99258.38
2022-08-30T01:17:13.134Z,99233.47
2022-08-30T01:20:04.455Z,99262.72
2022-08-30T01:22:50.932Z,99265.38
2022-08-30T01:25:37.753Z,99233.59
2022-08-30T01:28:26.999Z,99234.53
2022-08-30T01:31:13.665Z,99238.88
2022-08-30T01:34:01.643Z,99263.91
2022-08-30T01:36:48.631Z,99275.13
2022-08-30T01:39:35.005Z,99232.97
2022-08-30T01:42:22.282Z,99265.63
2022-08-30T01:45:10.458Z,99263.00
2022-08-30T01:47:56.634Z,99201.06
2022-08-30T01:50:48.236Z,99245.84
2022-08-30T01:53:34.450Z,99247.59
2022-08-30T01:56:21.961Z,99248.41
2022-08-30T01:59:08.595Z,99258.75
2022-08-30T02:01:55.073Z,99255.28
2022-08-30T02:04:42.704Z,99232.94
2022-08-30T02:07:29.135Z,99220.91
2022-08-30T02:10:15.610Z,99227.84
2022-08-30T02:13:03.549Z,99269.22
2022-08-30T02:15:49.960Z,99236.56
2022-08-30T02:18:37.370Z,99240.84
2022-08-30T02:21:25.410Z,99265.03
2022-08-30T02:24:11.854Z,99263.34
2022-08-30T02:26:58.533Z,99254.78
2022-08-30T02:29:44.961Z,99239.34
2022-08-30T02:32:31.555Z,99230.72
2022-08-30T02:35:18.112Z,99225.59
2022-08-30T02:38:05.204Z,99260.91
2022-08-30T02:40:51.888Z,99242.00
2022-08-30T02:43:38.155Z,99222.97
2022-08-30T02:46:25.030Z,99247.13
2022-08-30T02:49:32.572Z,99221.28
2022-08-30T02:52:19.675Z,99224.78
2022-08-30T02:55:12.338Z,99217.81
2022-08-30T02:57:58.637Z,99238.44
2022-08-30T03:00:45.168Z,99186.72
2022-08-30T03:03:32.243Z,99215.03
2022-08-30T03:06:18.954Z,99239.91
2022-08-30T03:09:05.519Z,99220.97
2022-08-30T03:11:52.178Z,99209.78
2022-08-30T03:14:38.997Z,99245.16
2022-08-30T03:17:26.763Z,99215.91
2022-08-30T03:20:13.956Z,99245.19
2022-08-30T03:23:01.249Z,99161.72
2022-08-30T03:25:47.650Z,99209.03
2022-08-30T03:28:34.432Z,99238.38
2022-08-30T03:31:21.080Z,99203.13
2022-08-30T03:34:07.451Z,99178.94
2022-08-30T03:36:55.992Z,99220.34
2022-08-30T03:39:43.060Z,99223.88
2022-08-30T03:42:29.585Z,99211.69
2022-08-30T03:45:18.698Z,99229.81
2022-08-30T03:48:05.618Z,99221.28
2022-08-30T03:50:52.130Z,99241.28
2022-08-30T03:53:38.531Z,99208.59
2022-08-30T03:56:24.872Z,99208.69
2022-08-30T03:59:11.362Z,99227.66
2022-08-30T04:01:59.109Z,99204.47
2022-08-30T04:04:45.434Z,99214.84
2022-08-30T04:07:31.878Z,99178.66
2022-08-30T04:10:21.147Z,99170.13
2022-08-30T04:13:07.777Z,99209.81
2022-08-30T04:15:54.221Z,99211.56
2022-08-30T04:18:40.475Z,99194.34
2022-08-30T04:21:26.959Z,99236.63
2022-08-30T04:24:13.532Z,99184.09
2022-08-30T04:27:00.469Z,99229.81
2022-08-30T04:29:47.681Z,99244.44
2022-08-30T04:32:36.014Z,99250.53
2022-08-30T04:35:22.608Z,99220.38
2022-08-30T04:38:09.349Z,99215.22
2022-08-30T04:40:55.758Z,99220.41
2022-08-30T04:43:43.520Z,99216.13
2022-08-30T04:46:30.808Z,99235.13
2022-08-30T04:49:17.382Z,99222.16
2022-08-30T04:52:06.242Z,99258.38
2022-08-30T04:54:57.007Z,99247.97
2022-08-30T04:57:43.499Z,99245.53
2022-08-30T05:00:30.080Z,99259.25
2022-08-30T05:03:17.843Z,99259.25
2022-08-30T05:06:04.601Z,99264.41
2022-08-30T05:08:51.908Z,99240.19
2022-08-30T05:11:38.906Z,99274.63
2022-08-30T05:14:25.226Z,99245.13
2022-08-30T05:17:11.556Z,99292.41
2022-08-30T05:19:57.916Z,99266.38
2022-08-30T05:22:53.631Z,99236.00
2022-08-30T05:25:42.650Z,99282.28
2022-08-30T05:28:28.853Z,99252.06
2022-08-30T05:31:22.934Z,99284.66
2022-08-30T05:34:09.103Z,99268.97
2022-08-30T05:36:55.525Z,99284.28
2022-08-30T05:39:50.692Z,99227.44
2022-08-30T05:42:41.279Z,99283.13
2022-08-30T05:45:27.514Z,99273.53
2022-08-30T05:48:13.692Z,99263.09
2022-08-30T05:51:23.107Z,99256.66
2022-08-30T05:54:09.758Z,99290.19
2022-08-30T05:56:56.232Z,99252.84
2022-08-30T05:59:42.763Z,99255.09
2022-08-30T06:02:29.087Z,99272.13
2022-08-30T06:05:15.636Z,99245.38
2022-08-30T06:08:02.395Z,99292.31
2022-08-30T06:10:48.931Z,99310.03
2022-08-30T06:13:35.672Z,99277.88
2022-08-30T06:16:25.351Z,99275.50
2022-08-30T06:19:14.824Z,99295.88
2022-08-30T06:22:01.391Z,99246.13
2022-08-30T06:24:57.580Z,99260.59
2022-08-30T06:27:44.705Z,99246.72
2022-08-30T06:30:31.778Z,99290.91
2022-08-30T06:33:17.870Z,99263.63
2022-08-30T06:36:11.297Z,99261.91
2022-08-30T06:38:58.883Z,99286.47
2022-08-30T06:41:45.098Z,99288.81
2022-08-30T06:44:45.793Z,99262.47
2022-08-30T06:47:32.356Z,99277.94
2022-08-30T06:50:20.313Z,99287.81
2022-08-30T06:53:06.507Z,99280.31
2022-08-30T06:56:01.446Z,99284.59
2022-08-30T06:58:48.270Z,99289.41
2022-08-30T07:01:34.968Z,99285.59
2022-08-30T07:04:21.547Z,99275.41
2022-08-30T07:07:10.809Z,99274.13
2022-08-30T07:09:57.406Z,99243.81
2022-08-30T07:12:43.879Z,99279.81
2022-08-30T07:15:30.145Z,99275.16
2022-08-30T07:18:40.415Z,99299.88
2022-08-30T07:21:31.806Z,99285.97
2022-08-30T07:24:19.745Z,99282.66
2022-08-30T07:27:06.207Z,99262.09
2022-08-30T07:29:52.958Z,99275.06
2022-08-30T07:32:39.120Z,99289.28
2022-08-30T07:35:26.050Z,99298.66
2022-08-30T07:38:13.662Z,99292.59
2022-08-30T07:41:01.272Z,99278.06
2022-08-30T07:43:48.346Z,99269.91
2022-08-30T07:46:36.742Z,99253.69
2022-08-30T07:49:23.386Z,99272.56
2022-08-30T07:52:09.893Z,99272.25
2022-08-30T07:54:57.659Z,99289.56
2022-08-30T07:57:44.119Z,99272.63
2022-08-30T08:00:30.556Z,99275.47
2022-08-30T08:03:16.883Z,99268.63
2022-08-30T08:06:05.673Z,99293.63
2022-08-30T08:08:53.611Z,99296.44
2022-08-30T08:11:41.662Z,99248.78
2022-08-30T08:14:28.389Z,99254.22
2022-08-30T08:17:14.728Z,99268.09
2022-08-30T08:20:01.037Z,99284.19
2022-08-30T08:22:47.814Z,99276.81
2022-08-30T08:25:38.822Z,99249.06
2022-08-30T08:28:25.661Z,99276.59
2022-08-30T08:31:17.678Z,99268.03
2022-08-30T08:34:06.185Z,99289.13
2022-08-30T08:36:53.709Z,99285.56
2022-08-30T08:39:40.026Z,99270.78
2022-08-30T08:43:00.694Z,99249.78
2022-08-30T08:46:22.309Z,99269.63
2022-08-30T08:49:08.841Z,99267.91
2022-08-30T08:52:14.586Z,99251.94
2022-08-30T08:55:08.703Z,99241.31
2022-08-30T08:57:57.054Z,99251.41
2022-08-30T09:00:43.739Z,99271.22
2022-08-30T09:03:32.676Z,99255.31
2022-08-30T09:06:24.958Z,99265.78
2022-08-30T09:09:12.789Z,99268.41
2022-08-30T09:11:59.684Z,99239.00
2022-08-30T09:14:55.491Z,99248.41
2022-08-30T09:18:06.923Z,99244.31
2022-08-30T09:21:07.841Z,99236.81
2022-08-30T09:24:01.626Z,99249.63
2022-08-30T09:26:50.026Z,99254.75
2022-08-30T09:29:36.484Z,99242.97
2022-08-30T09:32:52.370Z,99253.94
2022-08-30T09:35:44.327Z,99209.22
2022-08-30T09:38:32.861Z,99231.03
2022-08-30T09:41:37.135Z,99212.50
2022-08-30T09:44:30.446Z,99204.59
2022-08-30T09:47:29.593Z,99226.97
2022-08-30T09:50:24.409Z,99229.06
2022-08-30T09:53:22.784Z,99223.25
2022-08-30T09:56:28.171Z,99166.75
2022-08-30T09:59:34.207Z,99215.03
2022-08-30T10:02:30.233Z,99216.81
2022-08-30T10:05:49.786Z,99213.41
2022-08-30T10:08:41.422Z,99214.34
2022-08-30T10:11:43.702Z,99216.44
2022-08-30T10:14:36.907Z,99202.00
2022-08-30T10:17:55.199Z,99177.50
2022-08-30T10:21:06.621Z,99209.59
2022-08-30T10:24:20.991Z,99198.31
2022-08-30T10:27:16.029Z,99175.72
2022-08-30T10:30:10.405Z,99186.03
2022-08-30T10:33:15.100Z,99180.34
2022-08-30T10:36:10.523Z,99154.69
2022-08-30T10:38:58.914Z,99145.22
2022-08-30T10:42:02.356Z,99176.91
2022-08-30T10:45:12.523Z,99147.44
2022-08-30T10:48:07.464Z,99174.38
2022-08-30T10:50:58.307Z,99155.66
2022-08-30T10:53:52.193Z,99175.31
2022-08-30T10:56:42.941Z,99144.78
2022-08-30T10:59:29.702Z,99146.53
2022-08-30T11:02:22.227Z,99166.75
2022-08-30T11:05:27.537Z,99164.63
2022-08-30T11:11:32.616Z,99154.41
2022-08-30T11:14:20.242Z,99144.84
2022-08-30T11:17:26.827Z,99146.94
2022-08-30T11:20:39.091Z,99155.56
2022-08-30T11:23:36.365Z,99140.78
2022-08-30T11:26:57.487Z,99146.94
2022-08-30T11:29:45.266Z,99130.44
2022-08-30T11:33:02.276Z,99151.06
2022-08-30T11:35:52.507Z,99148.63
2022-08-30T11:38:38.994Z,99145.22
2022-08-30T11:41:47.944Z,99144.97
2022-08-30T11:44:34.876Z,99139.00
2022-08-30T11:47:46.784Z,99146.00
2022-08-30T11:50:54.209Z,99137.63
2022-08-30T11:53:49.269Z,99127.53
2022-08-30T11:57:17.406Z,99156.00
2022-08-30T12:00:35.059Z,99115.41
2022-08-30T12:03:22.158Z,99153.34
2022-08-30T12:06:10.864Z,99103.88
2022-08-30T12:10:32.154Z,99121.66
2022-08-30T12:12:06.302Z,99147.78
2022-08-30T12:14:55.093Z,99134.19
2022-08-30T12:18:03.458Z,99146.69
2022-08-30T12:20:50.462Z,99119.91
2022-08-30T12:23:52.260Z,99142.41
2022-08-30T12:26:43.383Z,99128.47
2022-08-30T12:29:31.473Z,99118.31
2022-08-30T12:32:20.467Z,99129.00
2022-08-30T12:35:07.478Z,99115.66
2022-08-30T12:38:05.823Z,99133.66
2022-08-30T12:40:56.421Z,99097.38
2022-08-30T12:43:51.157Z,99114.03
2022-08-30T12:46:37.507Z,99112.09
2022-08-30T12:49:27.975Z,99101.44
2022-08-30T12:52:26.382Z,99116.97
2022-08-30T12:55:23.508Z,99094.00
2022-08-30T12:58:10.974Z,99094.59
2022-08-30T13:01:29.209Z,99107.44
2022-08-30T13:04:23.658Z,99086.34
2022-08-30T13:07:10.331Z,99085.72
2022-08-30T13:10:06.106Z,99093.38
2022-08-30T13:13:05.755Z,99078.22
2022-08-30T13:15:52.118Z,99067.22
2022-08-30T13:18:38.712Z,99079.34
2022-08-30T13:21:29.849Z,99075.72
2022-08-30T13:24:16.080Z,99062.41
2022-08-30T13:27:11.249Z,99049.06
2022-08-30T13:29:58.319Z,99065.97
2022-08-30T13:32:44.893Z,99064.53
2022-08-30T13:35:32.427Z,99061.44
2022-08-30T13:38:19.285Z,99029.44
2022-08-30T13:41:07.161Z,99042.78
2022-08-30T13:44:15.628Z,99034.25
2022-08-30T13:50:10.222Z,99027.72
2022-08-30T13:52:56.557Z,99003.47
2022-08-30T13:55:43.747Z,99006.13
2022-08-30T13:58:30.163Z,99026.75
2022-08-30T14:01:16.839Z,99008.56
2022-08-30T14:04:18.594Z,99011.72
2022-08-30T14:07:19.970Z,99023.88
2022-08-30T14:13:14.340Z,98996.06
2022-08-30T14:19:12.435Z,98966.91
2022-08-30T14:21:58.842Z,98975.59
2022-08-30T14:24:45.176Z,98995.97
2022-08-30T14:27:31.556Z,98980.22
2022-08-30T14:30:21.129Z,98965.69
2022-08-30T14:33:07.594Z,98966.16
2022-08-30T14:35:55.378Z,98982.91
2022-08-30T14:38:42.665Z,98954.88
2022-08-30T14:41:29.406Z,98981.66
2022-08-30T14:44:17.604Z,98965.91
2022-08-30T14:47:05.391Z,98984.56
2022-08-30T14:49:53.234Z,98970.28
2022-08-30T14:52:39.868Z,98931.50
2022-08-30T14:55:28.585Z,98970.28
2022-08-30T14:58:17.980Z,98960.97
2022-08-30T15:01:09.907Z,98949.31
2022-08-30T15:03:57.173Z,98978.63
2022-08-30T15:06:47.572Z,98983.09
2022-08-30T15:09:34.369Z,98957.69
2022-08-30T15:12:21.208Z,98928.34
2022-08-30T15:15:08.402Z,98955.50
2022-08-30T15:17:55.189Z,98940.50
2022-08-30T15:20:48.762Z,98948.94
2022-08-30T15:23:35.377Z,98947.88
2022-08-30T15:26:23.015Z,98974.16
2022-08-30T15:29:16.378Z,98943.94
2022-08-30T15:32:04.075Z,98943.31
2022-08-30T15:34:55.929Z,98963.88
2022-08-30T15:37:42.854Z,98950.44
2022-08-30T15:40:30.141Z,98949.03
2022-08-30T15:43:17.094Z,98949.41
2022-08-30T15:46:19.541Z,98969.66
2022-08-30T15:49:07.562Z,98959.09
2022-08-30T15:51:54.641Z,98936.78
2022-08-30T15:54:44.408Z,98931.84
2022-08-30T15:57:32.919Z,98916.97
2022-08-30T16:00:19.524Z,98927.75
2022-08-30T16:03:06.798Z,98948.38
2022-08-30T16:05:53.143Z,98945.44
2022-08-30T16:08:40.497Z,98944.97
2022-08-30T16:11:27.069Z,98923.88
2022-08-30T16:14:13.653Z,98939.38
2022-08-30T16:17:01.578Z,98922.13
2022-08-30T16:19:48.169Z,98906.44
2022-08-30T16:22:35.129Z,98896.13
2022-08-30T16:25:21.621Z,98938.00
2022-08-30T16:28:10.182Z,98915.91
2022-08-30T16:30:56.894Z,98937.28
2022-08-30T16:38:11.073Z,98927.59
2022-08-30T16:40:58.322Z,98931.22
2022-08-30T16:43:45.879Z,98932.63
2022-08-30T16:46:34.039Z,98919.91
2022-08-30T16:49:22.501Z,98942.59
2022-08-30T16:52:11.308Z,98926.91
2022-08-30T16:54:58.638Z,98914.59
2022-08-30T16:57:45.733Z,98923.25
2022-08-30T17:00:33.807Z,98921.31
2022-08-30T17:03:21.163Z,98939.28
2022-08-30T17:06:08.110Z,98944.16
2022-08-30T17:08:56.009Z,98921.13
2022-08-30T17:11:42.877Z,98941.22
2022-08-30T17:14:29.454Z,98920.59
2022-08-30T17:17:16.562Z,98943.78
2022-08-30T17:20:10.012Z,98925.47
2022-08-30T17:22:56.445Z,98900.75
2022-08-30T17:25:43.341Z,98945.66
2022-08-30T17:28:29.627Z,98947.34
2022-08-30T17:31:16.186Z,98959.03
2022-08-30T17:34:04.144Z,98963.16
2022-08-30T17:36:52.560Z,98960.19
2022-08-30T17:39:39.904Z,98940.41
2022-08-30T17:42:29.841Z,98962.91
2022-08-30T17:45:17.439Z,98920.06
2022-08-30T17:48:04.205Z,98969.38
2022-08-30T17:50:55.980Z,98968.84
2022-08-30T17:53:43.167Z,98952.25
2022-08-30T17:56:35.225Z,98927.34
2022-08-30T17:59:25.338Z,98961.22
2022-08-30T18:02:14.004Z,98944.00
2022-08-30T18:05:00.427Z,98961.44
2022-08-30T18:07:46.784Z,98956.91
2022-08-30T18:10:34.672Z,98962.38
2022-08-30T18:13:21.407Z,98980.44
2022-08-30T18:16:10.176Z,98986.97
2022-08-30T18:18:58.538Z,98988.88
2022-08-30T18:21:45.128Z,98981.88
2022-08-30T18:24:31.819Z,99008.94
2022-08-30T18:27:17.995Z,98964.31
2022-08-30T18:30:06.493Z,98994.09
2022-08-30T18:32:57.823Z,98990.78
2022-08-30T18:35:48.302Z,98958.03
2022-08-30T18:38:35.419Z,99011.75
2022-08-30T18:41:22.569Z,98978.44
2022-08-30T18:44:26.667Z,99002.19
2022-08-30T18:47:14.269Z,98996.56
2022-08-30T18:50:00.475Z,99020.03
2022-08-30T18:52:46.675Z,98998.78
2022-08-30T18:55:33.535Z,98969.03
2022-08-30T18:58:19.816Z,98978.66
2022-08-30T19:01:07.317Z,99002.00
2022-08-30T19:03:55.124Z,99024.38
2022-08-30T19:06:43.117Z,98966.56
2022-08-30T19:09:29.503Z,99041.25
2022-08-30T19:12:16.169Z,99011.16
2022-08-30T19:15:10.946Z,98996.34
2022-08-30T19:17:58.134Z,98999.00
2022-08-30T19:20:45.861Z,99017.19
2022-08-30T19:23:36.327Z,99034.28
2022-08-30T19:26:23.064Z,99032.34
2022-08-30T19:29:09.347Z,99051.19
2022-08-30T19:31:57.041Z,99026.41
2022-08-30T19:34:43.679Z,99040.97
2022-08-30T19:37:30.167Z,99032.94
2022-08-30T19:40:19.406Z,99053.94
2022-08-30T19:43:06.786Z,99028.47
2022-08-30T19:45:59.461Z,99056.25
2022-08-30T19:48:46.101Z,99022.47
2022-08-30T19:51:33.618Z,99062.38
2022-08-30T19:54:20.388Z,99062.81
2022-08-30T19:57:06.926Z,99052.00
2022-08-30T19:59:53.474Z,99048.84
2022-08-30T20:02:40.583Z,99050.13
2022-08-30T20:05:27.380Z,99068.75
2022-08-30T20:08:14.062Z,99054.31
2022-08-30T20:11:00.485Z,99034.63
2022-08-30T20:13:48.150Z,99069.47
2022-08-30T20:16:37.942Z,99030.97
2022-08-30T20:19:27.702Z,99053.19
2022-08-30T20:22:15.889Z,99062.13
2022-08-30T20:25:02.336Z,99006.28
2022-08-30T20:27:49.270Z,99070.00
2022-08-30T20:30:35.929Z,99027.50
2022-08-30T20:33:23.421Z,99056.94
2022-08-30T20:36:11.226Z,99025.31
2022-08-30T20:38:58.766Z,99070.78
2022-08-30T20:41:45.336Z,99026.13
2022-08-30T20:44:32.786Z,99042.53
2022-08-30T20:47:20.491Z,99069.91
2022-08-30T20:50:13.586Z,99067.47
2022-08-30T20:53:00.622Z,99041.69
2022-08-30T20:55:48.190Z,99050.53
2022-08-30T20:58:34.471Z,99063.91
2022-08-30T21:01:21.479Z,99066.34
2022-08-30T21:04:12.146Z,99061.28
2022-08-30T21:06:59.373Z,99052.66
2022-08-30T21:09:46.040Z,99023.72
2022-08-30T21:12:32.714Z,99027.25
2022-08-30T21:15:37.830Z,99032.50
2022-08-30T21:18:29.434Z,99027.38
2022-08-30T21:21:22.201Z,99046.31
2022-08-30T21:24:10.257Z,99055.25
2022-08-30T21:26:57.462Z,99023.00
2022-08-30T21:29:44.370Z,99033.63
2022-08-30T21:32:31.045Z,99032.00
2022-08-30T21:35:35.980Z,99017.03
2022-08-30T21:38:23.273Z,99024.06
2022-08-30T21:41:09.831Z,99034.09
2022-08-30T21:43:58.073Z,99030.91
2022-08-30T21:46:46.110Z,99065.88
2022-08-30T21:49:32.579Z,99049.78
2022-08-30T21:52:19.505Z,99058.88
2022-08-30T21:55:05.954Z,99052.88
2022-08-30T21:57:54.406Z,99037.09
2022-08-30T22:00:41.134Z,99072.59
2022-08-30T22:03:27.943Z,99041.13
2022-08-30T22:06:15.538Z,99094.16
2022-08-30T22:09:05.372Z,99087.75
2022-08-30T22:11:52.154Z,99044.34
2022-08-30T22:14:38.705Z,99087.31
2022-08-30T22:17:25.021Z,99075.16
2022-08-30T22:20:11.999Z,99081.72
2022-08-30T22:23:05.267Z,99068.75
2022-08-30T22:25:52.333Z,99110.91
2022-08-30T22:28:39.075Z,99114.94
2022-08-30T22:31:26.536Z,99093.09
2022-08-30T22:34:13.161Z,99082.94
2022-08-30T22:36:59.949Z,99113.06
2022-08-30T22:39:46.182Z,99115.75
2022-08-30T22:42:32.482Z,99112.31
2022-08-30T22:45:18.696Z,99091.72
2022-08-30T22:48:05.364Z,99108.91
2022-08-30T22:50:52.031Z,99091.97
2022-08-30T22:53:39.096Z,99099.66
2022-08-30T22:56:26.731Z,99113.59
2022-08-30T22:59:13.275Z,99082.06
2022-08-30T23:01:59.966Z,99069.19
2022-08-30T23:04:46.651Z,99073.69
2022-08-30T23:07:33.249Z,99121.03
2022-08-30T23:10:19.967Z,99125.22
2022-08-30T23:13:06.363Z,99104.63
2022-08-30T23:15:52.817Z,99087.66
2022-08-30T23:18:40.822Z,99124.28
2022-08-30T23:21:30.213Z,99094.50
2022-08-30T23:24:35.577Z,99108.91
2022-08-30T23:27:41.852Z,99105.91
2022-08-30T23:30:47.131Z,99101.75
2022-08-30T23:33:51.957Z,99084.53
2022-08-30T23:36:57.126Z,99107.72
2022-08-30T23:40:02.224Z,99061.41
2022-08-30T23:43:07.342Z,99105.09
2022-08-30T23:46:19.372Z,99115.47
2022-08-30T23:49:24.689Z,99074.44
2022-08-30T23:52:29.521Z,99114.47
2022-08-30T23:55:34.744Z,99146.78
2022-08-30T23:58:39.648Z,99133.19
